createdAt,value
2022-10-24T00:00:49.830Z,2.87
2022-10-24T00:03:17.910Z,3.13
2022-10-24T00:05:49.163Z,2.97
2022-10-24T00:08:17.823Z,3.20
2022-10-24T00:10:48.372Z,3.17
2022-10-24T00:13:17.819Z,3.53
2022-10-24T00:15:48.918Z,2.97
2022-10-24T00:18:17.079Z,3.00
2022-10-24T00:20:46.914Z,2.80
2022-10-24T00:23:14.835Z,3.13
2022-10-24T00:25:42.780Z,3.07
2022-10-24T00:28:10.686Z,2.40
2022-10-24T00:30:38.595Z,2.73
2022-10-24T00:33:06.502Z,2.90
2022-10-24T00:35:34.527Z,2.97
2022-10-24T00:38:03.821Z,2.80
2022-10-24T00:40:31.811Z,3.03
2022-10-24T00:42:59.750Z,2.77
2022-10-24T00:45:49.669Z,3.00
2022-10-24T00:48:25.271Z,2.63
2022-10-24T00:50:56.534Z,3.07
2022-10-24T00:53:27.925Z,2.70
2022-10-24T00:55:59.032Z,2.40
2022-10-24T00:58:30.745Z,3.00
2022-10-24T01:00:59.346Z,3.03
2022-10-24T01:03:27.769Z,2.70
2022-10-24T01:06:18.823Z,2.90
2022-10-24T01:08:54.780Z,2.60
2022-10-24T01:11:38.847Z,2.50
2022-10-24T01:14:15.698Z,2.80
2022-10-24T01:16:50.056Z,2.93
2022-10-24T01:19:33.577Z,3.27
2022-10-24T01:22:06.583Z,3.17
2022-10-24T01:24:51.031Z,2.50
2022-10-24T01:27:50.235Z,2.73
2022-10-24T01:30:20.392Z,2.70
2022-10-24T01:32:57.005Z,2.70
2022-10-24T01:35:36.174Z,2.97
2022-10-24T01:38:12.514Z,2.77
2022-10-24T01:40:46.336Z,2.93
2022-10-24T01:43:18.258Z,2.77
2022-10-24T01:45:52.249Z,3.10
2022-10-24T01:48:22.951Z,2.53
2022-10-24T01:50:53.616Z,3.50
2022-10-24T01:53:24.915Z,3.17
2022-10-24T01:55:53.975Z,3.17
2022-10-24T01:58:24.487Z,2.60
2022-10-24T02:00:59.194Z,2.60
2022-10-24T02:03:32.547Z,2.60
2022-10-24T02:06:05.995Z,3.20
2022-10-24T02:08:38.618Z,3.30
2022-10-24T02:11:08.505Z,2.63
2022-10-24T02:13:42.205Z,3.40
2022-10-24T02:16:11.906Z,2.87
2022-10-24T02:18:41.630Z,2.77
2022-10-24T02:21:19.011Z,2.60
2022-10-24T02:23:53.376Z,3.20
2022-10-24T02:26:27.484Z,2.80
2022-10-24T02:28:59.650Z,3.07
2022-10-24T02:31:34.488Z,2.63
2022-10-24T02:34:04.608Z,2.30
2022-10-24T02:36:33.715Z,2.63
2022-10-24T02:39:03.735Z,2.80
2022-10-24T02:41:35.050Z,3.20
2022-10-24T02:44:04.957Z,2.77
2022-10-24T02:46:35.760Z,3.00
2022-10-24T02:49:04.722Z,2.70
2022-10-24T02:51:35.964Z,2.60
2022-10-24T02:54:04.957Z,2.93
2022-10-24T02:56:33.902Z,2.90
2022-10-24T02:59:01.935Z,2.30
2022-10-24T03:01:30.000Z,3.00
2022-10-24T03:03:59.484Z,2.47
2022-10-24T03:06:27.482Z,2.67
2022-10-24T03:08:55.421Z,2.47
2022-10-24T03:11:23.612Z,2.07
2022-10-24T03:13:51.788Z,2.43
2022-10-24T03:16:19.921Z,2.60
2022-10-24T03:18:47.905Z,2.57
2022-10-24T03:21:17.215Z,2.60
2022-10-24T03:23:45.127Z,2.40
2022-10-24T03:26:13.324Z,2.67
2022-10-24T03:28:41.226Z,2.83
2022-10-24T03:31:09.910Z,2.73
2022-10-24T03:33:37.874Z,2.20
2022-10-24T03:36:07.600Z,2.37
2022-10-24T03:38:36.912Z,2.63
2022-10-24T03:41:05.162Z,2.60
2022-10-24T03:43:33.216Z,2.50
2022-10-24T03:46:01.075Z,2.00
2022-10-24T03:48:29.147Z,2.23
2022-10-24T03:50:57.037Z,2.30
2022-10-24T03:53:25.204Z,2.43
2022-10-24T03:55:54.910Z,2.13
2022-10-24T03:58:22.809Z,2.47
2022-10-24T04:00:51.027Z,2.57
2022-10-24T04:03:19.006Z,2.70
2022-10-24T04:05:46.854Z,2.53
2022-10-24T04:08:14.773Z,2.10
2022-10-24T04:10:42.661Z,2.67
2022-10-24T04:13:12.329Z,1.90
2022-10-24T04:15:40.669Z,2.53
2022-10-24T04:18:09.774Z,1.97
2022-10-24T04:20:37.863Z,2.27
2022-10-24T04:23:05.877Z,2.40
2022-10-24T04:25:33.742Z,2.20
2022-10-24T04:28:01.632Z,2.63
2022-10-24T04:30:30.906Z,2.50
2022-10-24T04:32:58.968Z,1.90
2022-10-24T04:35:27.034Z,2.50
2022-10-24T04:37:55.071Z,2.40
2022-10-24T04:40:23.041Z,2.43
2022-10-24T04:42:51.076Z,2.60
2022-10-24T04:45:19.128Z,2.17
2022-10-24T04:47:48.515Z,2.33
2022-10-24T04:50:16.468Z,2.23
2022-10-24T04:52:44.388Z,2.20
2022-10-24T04:55:12.399Z,2.10
2022-10-24T04:57:40.584Z,2.20
2022-10-24T05:00:09.666Z,2.53
2022-10-24T05:02:37.694Z,1.80
2022-10-24T05:05:07.859Z,2.43
2022-10-24T05:07:36.399Z,2.20
2022-10-24T05:10:04.995Z,2.23
2022-10-24T05:12:32.993Z,2.57
2022-10-24T05:15:00.891Z,2.10
2022-10-24T05:17:28.862Z,2.30
2022-10-24T05:19:56.848Z,2.03
2022-10-24T05:22:25.998Z,2.10
2022-10-24T05:24:54.218Z,2.00
2022-10-24T05:27:24.660Z,2.00
2022-10-24T05:29:53.048Z,1.87
2022-10-24T05:32:22.157Z,1.70
2022-10-24T05:34:50.471Z,1.80
2022-10-24T05:37:18.932Z,1.70
2022-10-24T05:39:48.244Z,1.97
2022-10-24T05:42:16.359Z,1.73
2022-10-24T05:44:44.528Z,2.07
2022-10-24T05:47:12.516Z,1.60
2022-10-24T05:49:40.455Z,1.40
2022-10-24T05:52:08.425Z,1.90
2022-10-24T05:54:48.523Z,1.73
2022-10-24T05:57:25.886Z,1.90
2022-10-24T05:59:53.839Z,1.77
2022-10-24T06:02:22.439Z,1.60
2022-10-24T06:04:51.223Z,1.43
2022-10-24T06:07:19.581Z,1.70
2022-10-24T06:09:47.692Z,1.97
2022-10-24T06:12:15.695Z,1.80
2022-10-24T06:14:45.654Z,1.90
2022-10-24T06:17:13.740Z,2.00
2022-10-24T06:19:42.244Z,1.90
2022-10-24T06:22:10.424Z,2.13
2022-10-24T06:24:39.260Z,2.00
2022-10-24T06:27:07.757Z,1.80
2022-10-24T06:29:35.808Z,1.73
2022-10-24T06:32:05.332Z,2.17
2022-10-24T06:34:33.300Z,1.50
2022-10-24T06:37:01.189Z,1.77
2022-10-24T06:39:29.372Z,1.80
2022-10-24T06:41:57.333Z,1.80
2022-10-24T06:44:25.484Z,1.90
2022-10-24T06:46:53.436Z,1.37
2022-10-24T06:49:22.659Z,1.77
2022-10-24T06:51:50.621Z,1.93
2022-10-24T06:54:18.715Z,1.97
2022-10-24T06:56:46.713Z,1.60
2022-10-24T06:59:18.417Z,1.70
2022-10-24T07:01:47.082Z,1.70
2022-10-24T07:04:15.159Z,1.43
2022-10-24T07:06:44.372Z,1.53
2022-10-24T07:09:15.394Z,1.70
2022-10-24T07:11:43.908Z,1.73
2022-10-24T07:14:12.053Z,1.70
2022-10-24T07:16:40.683Z,1.40
2022-10-24T07:19:08.922Z,1.70
2022-10-24T07:21:37.125Z,1.67
2022-10-24T07:24:07.939Z,1.40
2022-10-24T07:26:35.892Z,1.40
2022-10-24T07:29:04.723Z,1.33
2022-10-24T07:31:36.064Z,1.87
2022-10-24T07:34:06.939Z,1.47
2022-10-24T07:36:36.211Z,1.23
2022-10-24T07:39:07.216Z,1.17
2022-10-24T07:41:37.892Z,1.27
2022-10-24T07:44:06.012Z,1.37
2022-10-24T07:46:33.915Z,1.40
2022-10-24T07:49:01.974Z,1.33
2022-10-24T07:51:30.685Z,1.17
2022-10-24T07:53:59.308Z,1.80
2022-10-24T07:56:28.623Z,2.07
2022-10-24T07:58:57.933Z,1.60
2022-10-24T08:01:27.091Z,1.20
2022-10-24T08:03:55.132Z,1.53
2022-10-24T08:06:24.794Z,1.77
2022-10-24T08:08:52.989Z,1.60
2022-10-24T08:11:22.825Z,1.10
2022-10-24T08:13:52.998Z,1.33
2022-10-24T08:16:23.450Z,1.37
2022-10-24T08:18:53.542Z,1.37
2022-10-24T08:21:23.297Z,1.40
2022-10-24T08:23:52.796Z,1.07
2022-10-24T08:26:22.679Z,1.30
2022-10-24T08:28:52.003Z,1.17
2022-10-24T08:31:22.293Z,1.00
2022-10-24T08:33:53.890Z,1.33
2022-10-24T08:36:24.749Z,1.70
2022-10-24T08:38:52.798Z,1.47
2022-10-24T08:41:28.635Z,2.10
2022-10-24T08:44:01.498Z,1.80
2022-10-24T08:46:44.292Z,1.70
2022-10-24T08:49:25.131Z,1.77
2022-10-24T08:51:56.358Z,1.50
2022-10-24T08:54:29.225Z,1.37
2022-10-24T08:56:59.908Z,1.63
2022-10-24T08:59:31.925Z,1.87
2022-10-24T09:02:04.539Z,1.43
2022-10-24T09:04:40.414Z,1.70
2022-10-24T09:07:15.094Z,1.47
2022-10-24T09:09:48.677Z,1.30
2022-10-24T09:12:18.738Z,1.40
2022-10-24T09:14:54.271Z,1.63
2022-10-24T09:17:24.128Z,1.30
2022-10-24T09:19:55.492Z,2.57
2022-10-24T09:22:26.278Z,1.70
2022-10-24T09:24:58.737Z,2.63
2022-10-24T09:27:29.694Z,1.90
2022-10-24T09:30:00.343Z,1.27
2022-10-24T09:32:31.152Z,1.60
2022-10-24T09:35:01.504Z,1.70
2022-10-24T09:37:43.908Z,1.87
2022-10-24T09:40:20.330Z,1.30
2022-10-24T09:42:58.159Z,1.50
2022-10-24T09:45:43.260Z,1.30
2022-10-24T09:48:25.967Z,1.53
2022-10-24T09:50:58.206Z,1.60
2022-10-24T09:53:28.955Z,1.23
2022-10-24T09:56:00.402Z,1.60
2022-10-24T09:58:32.781Z,1.47
2022-10-24T10:01:05.470Z,1.57
2022-10-24T10:03:34.189Z,1.50
2022-10-24T10:06:06.212Z,1.47
2022-10-24T10:08:38.689Z,2.20
2022-10-24T10:11:08.813Z,1.40
2022-10-24T10:13:45.677Z,1.60
2022-10-24T10:16:24.164Z,1.30
2022-10-24T10:18:53.921Z,1.77
2022-10-24T10:21:23.169Z,2.20
2022-10-24T10:23:52.351Z,1.70
2022-10-24T10:26:24.281Z,2.07
2022-10-24T10:28:58.813Z,1.30
2022-10-24T10:31:38.558Z,1.30
2022-10-24T10:34:26.792Z,0.90
2022-10-24T10:37:19.960Z,1.10
2022-10-24T10:40:12.817Z,1.30
2022-10-24T10:42:50.400Z,1.00
2022-10-24T10:45:28.692Z,1.20
2022-10-24T10:48:12.545Z,1.20
2022-10-24T10:50:44.657Z,1.00
2022-10-24T10:53:28.767Z,1.10
2022-10-24T10:56:04.470Z,0.93
2022-10-24T10:58:45.441Z,1.10
2022-10-24T11:01:23.950Z,1.47
2022-10-24T11:04:03.277Z,1.10
2022-10-24T11:06:41.085Z,1.00
2022-10-24T11:09:27.600Z,1.87
2022-10-24T11:12:02.139Z,1.37
2022-10-24T11:14:34.868Z,1.50
2022-10-24T11:17:11.171Z,1.13
2022-10-24T11:19:48.470Z,1.50
2022-10-24T11:22:22.099Z,1.60
2022-10-24T11:24:58.733Z,1.47
2022-10-24T11:27:32.233Z,1.30
2022-10-24T11:30:07.201Z,1.30
2022-10-24T11:32:40.384Z,1.10
2022-10-24T11:35:22.904Z,1.33
2022-10-24T11:37:53.817Z,1.20
2022-10-24T11:40:23.736Z,1.17
2022-10-24T11:42:57.301Z,1.43
2022-10-24T11:45:29.696Z,1.50
2022-10-24T11:48:04.074Z,1.67
2022-10-24T11:50:40.502Z,1.20
2022-10-24T11:53:21.654Z,1.40
2022-10-24T11:55:55.464Z,1.73
2022-10-24T11:58:26.083Z,1.50
2022-10-24T12:01:13.263Z,1.80
2022-10-24T12:04:11.730Z,1.80
2022-10-24T12:07:04.369Z,1.40
2022-10-24T12:09:58.251Z,1.10
2022-10-24T12:12:43.703Z,1.20
2022-10-24T12:15:32.163Z,1.30
2022-10-24T12:18:06.315Z,1.33
2022-10-24T12:20:35.364Z,1.60
2022-10-24T12:23:05.259Z,1.10
2022-10-24T12:25:36.284Z,1.83
2022-10-24T12:28:09.057Z,1.80
2022-10-24T12:30:37.782Z,1.10
2022-10-24T12:33:12.806Z,1.60
2022-10-24T12:35:58.856Z,1.70
2022-10-24T12:39:06.517Z,1.33
2022-10-24T12:41:42.004Z,1.50
2022-10-24T12:44:52.540Z,1.80
2022-10-24T12:47:41.737Z,1.53
2022-10-24T12:51:01.664Z,1.30
2022-10-24T12:53:38.849Z,1.50
2022-10-24T12:56:16.454Z,1.10
2022-10-24T12:58:56.550Z,1.30
2022-10-24T13:01:29.676Z,1.23
2022-10-24T13:04:29.911Z,1.60
2022-10-24T13:07:31.261Z,1.63
2022-10-24T13:10:21.511Z,1.30
2022-10-24T13:13:04.781Z,1.47
2022-10-24T13:15:42.936Z,1.63
2022-10-24T13:18:23.672Z,1.53
2022-10-24T13:21:14.090Z,1.60
2022-10-24T13:23:44.635Z,1.27
2022-10-24T13:26:34.159Z,1.40
2022-10-24T13:29:02.067Z,1.37
2022-10-24T13:31:51.908Z,1.73
2022-10-24T13:34:30.287Z,1.20
2022-10-24T13:37:12.633Z,1.30
2022-10-24T13:39:45.977Z,1.40
2022-10-24T13:42:27.772Z,1.43
2022-10-24T13:45:00.579Z,1.23
2022-10-24T13:47:34.498Z,1.50
2022-10-24T13:50:07.125Z,1.10
2022-10-24T13:52:40.368Z,1.10
2022-10-24T13:55:22.797Z,1.47
2022-10-24T13:57:53.412Z,1.17
2022-10-24T14:00:24.253Z,1.30
2022-10-24T14:02:54.783Z,1.40
2022-10-24T14:05:34.313Z,1.07
2022-10-24T14:08:03.458Z,1.87
2022-10-24T14:10:32.000Z,1.23
2022-10-24T14:13:01.049Z,1.00
2022-10-24T14:15:32.112Z,1.37
2022-10-24T14:18:04.552Z,1.27
2022-10-24T14:20:34.602Z,1.30
2022-10-24T14:23:02.822Z,1.20
2022-10-24T14:25:35.291Z,1.33
2022-10-24T14:28:10.790Z,1.40
2022-10-24T14:30:38.778Z,1.13
2022-10-24T14:33:21.603Z,0.80
2022-10-24T14:35:52.320Z,1.10
2022-10-24T14:38:24.302Z,1.30
2022-10-24T14:41:06.217Z,1.20
2022-10-24T14:43:37.139Z,1.47
2022-10-24T14:46:10.340Z,1.70
2022-10-24T14:48:41.984Z,0.93
2022-10-24T14:51:15.968Z,1.40
2022-10-24T14:53:45.939Z,1.40
2022-10-24T14:56:24.515Z,1.10
2022-10-24T14:58:53.333Z,1.33
2022-10-24T15:01:23.306Z,1.20
2022-10-24T15:03:57.740Z,1.20
2022-10-24T15:06:27.964Z,1.17
2022-10-24T15:09:05.193Z,1.20
2022-10-24T15:11:38.640Z,1.40
2022-10-24T15:14:07.336Z,0.90
2022-10-24T15:16:38.676Z,1.33
2022-10-24T15:19:17.807Z,1.27
2022-10-24T15:21:47.261Z,1.33
2022-10-24T15:24:22.878Z,1.40
2022-10-24T15:26:51.368Z,1.17
2022-10-24T15:29:21.559Z,1.33
2022-10-24T15:31:51.607Z,1.50
2022-10-24T15:34:22.917Z,0.80
2022-10-24T15:36:53.036Z,1.50
2022-10-24T15:39:24.272Z,1.27
2022-10-24T15:41:52.772Z,2.10
2022-10-24T15:44:25.614Z,1.70
2022-10-24T15:46:54.273Z,1.83
2022-10-24T15:49:23.665Z,1.67
2022-10-24T15:51:52.216Z,1.27
2022-10-24T15:54:21.986Z,1.90
2022-10-24T15:56:50.621Z,1.57
2022-10-24T15:59:19.996Z,1.63
2022-10-24T16:01:53.100Z,1.57
2022-10-24T16:04:23.263Z,1.50
2022-10-24T16:06:51.760Z,1.80
2022-10-24T16:09:23.561Z,1.70
2022-10-24T16:11:51.480Z,2.10
2022-10-24T16:14:21.491Z,1.70
2022-10-24T16:16:49.757Z,1.67
2022-10-24T16:19:17.693Z,1.60
2022-10-24T16:21:46.995Z,1.83
2022-10-24T16:24:15.505Z,1.40
2022-10-24T16:26:43.419Z,1.73
2022-10-24T16:29:11.781Z,1.80
2022-10-24T16:31:39.658Z,1.90
2022-10-24T16:34:08.856Z,1.73
2022-10-24T16:36:36.812Z,1.80
2022-10-24T16:39:06.233Z,1.07
2022-10-24T16:41:34.160Z,1.70
2022-10-24T16:44:02.466Z,1.60
2022-10-24T16:46:30.401Z,1.87
2022-10-24T16:48:58.340Z,1.90
2022-10-24T16:51:31.750Z,1.83
2022-10-24T16:53:59.904Z,2.23
2022-10-24T16:56:29.701Z,1.60
2022-10-24T16:58:57.756Z,2.23
2022-10-24T17:01:27.791Z,2.17
2022-10-24T17:03:56.019Z,1.60
2022-10-24T17:06:23.949Z,1.77
2022-10-24T17:08:52.497Z,1.23
2022-10-24T17:11:39.911Z,1.60
2022-10-24T17:14:10.246Z,1.73
2022-10-24T17:16:38.194Z,1.87
2022-10-24T17:19:15.734Z,2.10
2022-10-24T17:21:46.751Z,1.70
2022-10-24T17:24:15.614Z,1.80
2022-10-24T17:26:44.347Z,1.77
2022-10-24T17:29:23.245Z,1.90
2022-10-24T17:31:51.937Z,1.23
2022-10-24T17:34:20.172Z,1.63
2022-10-24T17:36:53.423Z,1.60
2022-10-24T17:41:59.007Z,1.90
2022-10-24T17:44:28.937Z,1.80
2022-10-24T17:46:58.218Z,1.80
2022-10-24T17:49:26.652Z,1.77
2022-10-24T17:51:54.527Z,2.20
2022-10-24T17:54:22.640Z,1.90
2022-10-24T17:56:50.549Z,1.90
2022-10-24T17:59:18.763Z,1.70
2022-10-24T18:01:48.300Z,2.00
2022-10-24T18:04:16.551Z,1.57
2022-10-24T18:06:44.515Z,1.67
2022-10-24T18:09:12.916Z,1.70
2022-10-24T18:11:41.032Z,1.77
2022-10-24T18:14:09.064Z,1.87
2022-10-24T18:16:39.412Z,1.90
2022-10-24T18:19:08.921Z,1.70
2022-10-24T18:21:36.885Z,2.00
2022-10-24T18:24:07.510Z,1.90
2022-10-24T18:26:35.458Z,1.87
2022-10-24T18:29:03.348Z,2.73
2022-10-24T18:31:33.988Z,2.83
2022-10-24T18:34:04.808Z,2.53
2022-10-24T18:36:37.619Z,1.97
2022-10-24T18:39:05.849Z,2.00
2022-10-24T18:41:38.935Z,2.43
2022-10-24T18:44:23.068Z,2.10
2022-10-24T18:46:52.279Z,2.30
2022-10-24T18:49:20.749Z,1.73
2022-10-24T18:51:58.241Z,2.07
2022-10-24T18:54:26.440Z,1.70
2022-10-24T18:56:54.597Z,1.77
2022-10-24T18:59:23.027Z,1.87
2022-10-24T19:02:02.766Z,2.13
2022-10-24T19:04:31.256Z,1.60
2022-10-24T19:07:03.854Z,2.10
2022-10-24T19:09:32.007Z,1.73
2022-10-24T19:12:00.209Z,2.20
2022-10-24T19:14:28.944Z,2.40
2022-10-24T19:16:58.148Z,2.00
2022-10-24T19:19:30.126Z,1.90
2022-10-24T19:21:58.174Z,2.07
2022-10-24T19:24:27.748Z,1.87
2022-10-24T19:26:55.643Z,1.80
2022-10-24T19:29:23.734Z,1.73
2022-10-24T19:31:51.824Z,1.80
2022-10-24T19:34:19.987Z,2.00
2022-10-24T19:36:48.154Z,1.67
2022-10-24T19:39:16.241Z,2.10
2022-10-24T19:41:45.588Z,1.80
2022-10-24T19:44:13.477Z,2.00
2022-10-24T19:46:41.328Z,1.67
2022-10-24T19:49:09.254Z,1.90
2022-10-24T19:51:37.144Z,1.90
2022-10-24T19:54:05.263Z,1.47
2022-10-24T19:56:33.234Z,1.53
2022-10-24T19:59:02.543Z,1.50
2022-10-24T20:01:32.275Z,1.70
2022-10-24T20:04:01.488Z,1.50
2022-10-24T20:06:29.359Z,2.00
2022-10-24T20:08:57.270Z,1.93
2022-10-24T20:11:25.443Z,1.67
2022-10-24T20:13:53.275Z,1.80
2022-10-24T20:16:22.964Z,2.10
2022-10-24T20:18:50.872Z,1.73
2022-10-24T20:21:19.631Z,1.57
2022-10-24T20:23:49.053Z,1.83
2022-10-24T20:26:19.615Z,1.80
2022-10-24T20:28:49.926Z,1.53
2022-10-24T20:31:24.294Z,1.53
2022-10-24T20:33:52.506Z,1.20
2022-10-24T20:36:21.765Z,1.77
2022-10-24T20:38:49.689Z,1.83
2022-10-24T20:41:17.807Z,1.33
2022-10-24T20:43:45.863Z,1.57
2022-10-24T20:46:14.078Z,1.70
2022-10-24T20:48:43.351Z,1.80
2022-10-24T20:51:13.221Z,1.83
2022-10-24T20:53:42.255Z,1.27
2022-10-24T20:56:12.141Z,1.63
2022-10-24T20:58:41.551Z,1.30
2022-10-24T21:01:11.303Z,1.13
2022-10-24T21:03:39.800Z,1.80
2022-10-24T21:06:17.208Z,1.20
2022-10-24T21:08:45.197Z,1.80
2022-10-24T21:11:15.482Z,1.30
2022-10-24T21:13:43.660Z,1.93
2022-10-24T21:16:11.908Z,1.63
2022-10-24T21:18:39.880Z,1.40
2022-10-24T21:21:11.137Z,2.03
2022-10-24T21:23:39.521Z,1.33
2022-10-24T21:26:09.644Z,1.50
2022-10-24T21:28:38.164Z,1.90
2022-10-24T21:31:07.273Z,1.50
2022-10-24T21:33:35.835Z,1.30
2022-10-24T21:36:10.280Z,1.47
2022-10-24T21:38:38.242Z,1.50
2022-10-24T21:41:08.159Z,1.70
2022-10-24T21:43:37.992Z,1.40
2022-10-24T21:46:07.628Z,1.70
2022-10-24T21:48:36.108Z,1.70
2022-10-24T21:51:06.418Z,1.97
2022-10-24T21:53:38.828Z,1.67
2022-10-24T21:56:09.371Z,1.63
2022-10-24T21:58:38.468Z,1.50
2022-10-24T22:01:14.081Z,1.70
2022-10-24T22:03:42.449Z,1.50
2022-10-24T22:06:12.414Z,1.37
2022-10-24T22:08:42.019Z,1.37
2022-10-24T22:11:11.780Z,1.80
2022-10-24T22:13:40.142Z,1.13
2022-10-24T22:16:10.970Z,1.27
2022-10-24T22:18:39.517Z,1.73
2022-10-24T22:21:09.992Z,1.30
2022-10-24T22:23:38.046Z,1.30
2022-10-24T22:26:07.239Z,1.50
2022-10-24T22:28:35.170Z,1.20
2022-10-24T22:31:03.580Z,1.57
2022-10-24T22:33:35.132Z,1.50
2022-10-24T22:36:08.061Z,1.57
2022-10-24T22:38:36.533Z,1.23
2022-10-24T22:41:05.276Z,1.60
2022-10-24T22:43:35.294Z,1.40
2022-10-24T22:46:16.861Z,1.13
2022-10-24T22:48:47.889Z,1.30
2022-10-24T22:51:20.173Z,1.63
2022-10-24T22:53:48.758Z,1.10
2022-10-24T22:56:21.150Z,1.50
2022-10-24T22:58:51.010Z,1.40
2022-10-24T23:01:29.859Z,1.40
2022-10-24T23:04:11.912Z,1.40
2022-10-24T23:06:46.736Z,1.50
2022-10-24T23:09:14.658Z,1.37
2022-10-24T23:11:43.008Z,1.40
2022-10-24T23:14:13.461Z,1.20
2022-10-24T23:16:47.984Z,1.20
2022-10-24T23:19:20.989Z,1.63
2022-10-24T23:21:53.861Z,1.27
2022-10-24T23:24:22.060Z,1.27
2022-10-24T23:27:09.430Z,1.40
2022-10-24T23:29:40.029Z,1.40
2022-10-24T23:32:14.288Z,1.50
2022-10-24T23:34:42.714Z,1.23
2022-10-24T23:37:17.680Z,1.10
2022-10-24T23:39:46.230Z,1.13
2022-10-24T23:42:14.690Z,1.07
2022-10-24T23:44:44.551Z,1.40
2022-10-24T23:47:23.670Z,1.30
2022-10-24T23:50:00.308Z,1.47
2022-10-24T23:52:35.055Z,1.17
2022-10-24T23:55:03.533Z,1.40
2022-10-24T23:57:31.870Z,1.60
